LXJ347 KPDK-KORL
Flight info
| Callsign | LXJ347 |
|---|---|
| Flight time | 1h 0m |
| Altitude | 37000 |
| Route | SOONE MJKAL JAFAR3 |
| Aircraft | E55P/M-SBDGRW/LB2 |
Departure
| Time | 2026-05-04 23:21 |
|---|---|
| Airport | DeKalb Peachtree Airport (KPDK) |
Arrival
| Time | 2026-05-05 00:21 |
|---|---|
| Airport | Orlando Executive Airport (KORL) |
| Time | Latitude | Longitude | Altitude | Speed | Heading |
|---|---|---|---|---|---|
| 2026-05-04 23:01 | 33.88066 | -84.30267 | 980 ft | 0 kts | 90° |
| 2026-05-04 23:17 | 33.88067 | -84.30228 | 979 ft | 9 kts | 77° |
| 2026-05-04 23:17 | 33.88118 | -84.30187 | 979 ft | 9 kts | 19° |
| 2026-05-04 23:18 | 33.88164 | -84.30142 | 978 ft | 9 kts | 78° |
| 2026-05-04 23:18 | 33.88187 | -84.30067 | 976 ft | 11 kts | 20° |
| 2026-05-04 23:18 | 33.88242 | -84.30043 | 976 ft | 5 kts | 20° |
| 2026-05-04 23:18 | 33.88289 | -84.30022 | 976 ft | 8 kts | 20° |
| 2026-05-04 23:19 | 33.88344 | -84.29997 | 976 ft | 8 kts | 20° |
| 2026-05-04 23:19 | 33.88400 | -84.29971 | 976 ft | 8 kts | 20° |
| 2026-05-04 23:19 | 33.88450 | -84.29942 | 976 ft | 7 kts | 49° |
| 2026-05-04 23:19 | 33.88448 | -84.29874 | 974 ft | 9 kts | 111° |
| 2026-05-04 23:20 | 33.88430 | -84.29816 | 971 ft | 4 kts | 110° |
| 2026-05-04 23:20 | 33.88418 | -84.29778 | 969 ft | 7 kts | 110° |
| 2026-05-04 23:20 | 33.88391 | -84.29719 | 967 ft | 5 kts | 166° |
| 2026-05-04 23:20 | 33.88348 | -84.29731 | 966 ft | 8 kts | 200° |
| 2026-05-04 23:21 | 33.88113 | -84.29837 | 967 ft | 76 kts | 200° |
| 2026-05-04 23:21 | 33.87395 | -84.30151 | 1061 ft | 134 kts | 200° |
| 2026-05-04 23:21 | 33.86488 | -84.30564 | 1732 ft | 148 kts | 201° |
| 2026-05-04 23:21 | 33.85466 | -84.31012 | 2375 ft | 166 kts | 199° |
| 2026-05-04 23:22 | 33.84326 | -84.31509 | 3018 ft | 185 kts | 200° |
| 2026-05-04 23:22 | 33.83066 | -84.32036 | 3594 ft | 201 kts | 194° |
| 2026-05-04 23:22 | 33.81656 | -84.31992 | 3915 ft | 207 kts | 160° |
| 2026-05-04 23:22 | 33.80502 | -84.30971 | 3997 ft | 208 kts | 135° |
| 2026-05-04 23:23 | 33.79532 | -84.29677 | 3995 ft | 210 kts | 134° |
| 2026-05-04 23:23 | 33.78501 | -84.28421 | 4019 ft | 209 kts | 146° |
| 2026-05-04 23:23 | 33.77184 | -84.27745 | 4072 ft | 209 kts | 170° |
| 2026-05-04 23:23 | 33.75747 | -84.27464 | 4463 ft | 211 kts | 174° |
| 2026-05-04 23:24 | 33.74275 | -84.27268 | 5107 ft | 215 kts | 176° |
| 2026-05-04 23:24 | 33.72745 | -84.27090 | 5828 ft | 230 kts | 175° |
| 2026-05-04 23:24 | 33.71135 | -84.26911 | 6604 ft | 241 kts | 176° |
| 2026-05-04 23:24 | 33.69463 | -84.26741 | 7519 ft | 246 kts | 177° |
| 2026-05-04 23:25 | 33.67744 | -84.26572 | 8428 ft | 251 kts | 177° |
| 2026-05-04 23:25 | 33.66028 | -84.26399 | 9355 ft | 254 kts | 176° |
| 2026-05-04 23:25 | 33.64259 | -84.26218 | 10302 ft | 256 kts | 177° |
| 2026-05-04 23:25 | 33.62488 | -84.26037 | 11181 ft | 260 kts | 177° |
| 2026-05-04 23:26 | 33.60674 | -84.25855 | 12010 ft | 266 kts | 178° |
| 2026-05-04 23:26 | 33.58836 | -84.25667 | 12838 ft | 271 kts | 178° |
| 2026-05-04 23:26 | 33.56926 | -84.25475 | 13657 ft | 277 kts | 178° |
| 2026-05-04 23:26 | 33.55019 | -84.25279 | 14541 ft | 280 kts | 178° |
| 2026-05-04 23:27 | 33.53080 | -84.25082 | 15451 ft | 282 kts | 178° |
| 2026-05-04 23:27 | 33.51131 | -84.24888 | 16298 ft | 285 kts | 179° |
| 2026-05-04 23:27 | 33.49146 | -84.24683 | 17125 ft | 288 kts | 179° |
| 2026-05-04 23:27 | 33.47138 | -84.24483 | 17914 ft | 292 kts | 179° |
| 2026-05-04 23:28 | 33.45112 | -84.24277 | 18669 ft | 296 kts | 180° |
| 2026-05-04 23:28 | 33.43071 | -84.24072 | 19408 ft | 300 kts | 180° |
| 2026-05-04 23:28 | 33.40975 | -84.23860 | 20102 ft | 305 kts | 180° |
| 2026-05-04 23:28 | 33.38832 | -84.23644 | 20822 ft | 310 kts | 180° |
| 2026-05-04 23:29 | 33.36696 | -84.23428 | 21513 ft | 314 kts | 181° |
| 2026-05-04 23:29 | 33.34487 | -84.23207 | 22144 ft | 320 kts | 181° |
| 2026-05-04 23:29 | 33.32283 | -84.22988 | 22787 ft | 324 kts | 181° |
| 2026-05-04 23:29 | 33.30006 | -84.22756 | 23385 ft | 330 kts | 181° |
| 2026-05-04 23:30 | 33.27702 | -84.22523 | 24027 ft | 333 kts | 181° |
| 2026-05-04 23:30 | 33.25404 | -84.22292 | 24668 ft | 336 kts | 181° |
| 2026-05-04 23:30 | 33.23060 | -84.22059 | 25302 ft | 338 kts | 182° |
| 2026-05-04 23:30 | 33.20714 | -84.21819 | 25788 ft | 343 kts | 182° |
| 2026-05-04 23:31 | 33.18308 | -84.21579 | 26326 ft | 347 kts | 182° |
| 2026-05-04 23:31 | 33.15900 | -84.21342 | 26831 ft | 350 kts | 182° |
| 2026-05-04 23:31 | 33.13482 | -84.21095 | 27406 ft | 352 kts | 183° |
| 2026-05-04 23:31 | 33.11043 | -84.20853 | 27956 ft | 353 kts | 182° |
| 2026-05-04 23:32 | 33.08577 | -84.20600 | 28413 ft | 357 kts | 181° |
| 2026-05-04 23:32 | 33.06133 | -84.19769 | 28803 ft | 375 kts | 162° |
| 2026-05-04 23:32 | 33.03740 | -84.18540 | 29222 ft | 378 kts | 163° |
| 2026-05-04 23:32 | 33.01291 | -84.17316 | 29697 ft | 380 kts | 163° |
| 2026-05-04 23:33 | 32.98854 | -84.16097 | 30223 ft | 381 kts | 163° |
| 2026-05-04 23:33 | 32.96433 | -84.14889 | 30702 ft | 383 kts | 164° |
| 2026-05-04 23:33 | 32.93970 | -84.13654 | 31212 ft | 383 kts | 164° |
| 2026-05-04 23:33 | 32.91500 | -84.12434 | 31662 ft | 385 kts | 165° |
| 2026-05-04 23:34 | 32.89039 | -84.11204 | 32083 ft | 388 kts | 165° |
| 2026-05-04 23:34 | 32.86538 | -84.09969 | 32551 ft | 388 kts | 165° |
| 2026-05-04 23:34 | 32.84039 | -84.08730 | 32967 ft | 390 kts | 165° |
| 2026-05-04 23:34 | 32.81555 | -84.07495 | 33357 ft | 392 kts | 165° |
| 2026-05-04 23:35 | 32.79007 | -84.06234 | 33717 ft | 395 kts | 166° |
| 2026-05-04 23:35 | 32.76476 | -84.04977 | 34166 ft | 396 kts | 166° |
| 2026-05-04 23:35 | 32.73952 | -84.03725 | 34659 ft | 395 kts | 166° |
| 2026-05-04 23:35 | 32.71400 | -84.02468 | 35134 ft | 394 kts | 166° |
| 2026-05-04 23:36 | 32.68852 | -84.01210 | 35519 ft | 397 kts | 166° |
| 2026-05-04 23:36 | 32.66294 | -83.99948 | 35893 ft | 399 kts | 166° |
| 2026-05-04 23:36 | 32.63741 | -83.98681 | 36371 ft | 398 kts | 166° |
| 2026-05-04 23:36 | 32.61156 | -83.97403 | 36859 ft | 397 kts | 166° |
| 2026-05-04 23:37 | 32.58598 | -83.96152 | 37004 ft | 405 kts | 166° |
| 2026-05-04 23:37 | 32.55951 | -83.94848 | 37036 ft | 417 kts | 166° |
| 2026-05-04 23:37 | 32.53223 | -83.93504 | 37029 ft | 429 kts | 166° |
| 2026-05-04 23:37 | 32.50423 | -83.92129 | 37028 ft | 441 kts | 165° |
| 2026-05-04 23:38 | 32.47515 | -83.90693 | 37039 ft | 452 kts | 165° |
| 2026-05-04 23:38 | 32.44615 | -83.89275 | 37040 ft | 462 kts | 165° |
| 2026-05-04 23:38 | 32.38542 | -83.86289 | 37040 ft | 481 kts | 165° |
| 2026-05-04 23:39 | 32.32239 | -83.83192 | 37033 ft | 498 kts | 164° |
| 2026-05-04 23:39 | 32.25824 | -83.80050 | 37034 ft | 500 kts | 164° |
| 2026-05-04 23:40 | 32.19422 | -83.76922 | 37034 ft | 501 kts | 164° |
| 2026-05-04 23:40 | 32.12936 | -83.73756 | 37031 ft | 502 kts | 164° |
| 2026-05-04 23:41 | 32.06486 | -83.70601 | 37036 ft | 503 kts | 164° |
| 2026-05-04 23:41 | 32.00030 | -83.67469 | 37030 ft | 504 kts | 164° |
| 2026-05-04 23:42 | 31.93559 | -83.64323 | 37029 ft | 500 kts | 164° |
| 2026-05-04 23:42 | 31.87141 | -83.61208 | 37019 ft | 496 kts | 164° |
| 2026-05-04 23:43 | 31.80790 | -83.58134 | 37016 ft | 493 kts | 164° |
| 2026-05-04 23:43 | 31.74458 | -83.55069 | 37020 ft | 491 kts | 164° |
| 2026-05-04 23:44 | 31.68137 | -83.52018 | 37025 ft | 491 kts | 164° |
| 2026-05-04 23:44 | 31.61815 | -83.48967 | 37026 ft | 491 kts | 164° |
| 2026-05-04 23:45 | 31.55535 | -83.45940 | 37038 ft | 492 kts | 164° |
| 2026-05-04 23:45 | 31.49196 | -83.42899 | 37044 ft | 493 kts | 164° |
| 2026-05-04 23:46 | 31.42838 | -83.39843 | 37044 ft | 493 kts | 163° |
| 2026-05-04 23:46 | 31.36476 | -83.36789 | 37025 ft | 494 kts | 164° |
| 2026-05-04 23:47 | 31.30131 | -83.33753 | 37008 ft | 494 kts | 164° |
| 2026-05-04 23:47 | 31.23742 | -83.30701 | 37012 ft | 493 kts | 164° |
| 2026-05-04 23:48 | 31.17416 | -83.27681 | 37016 ft | 493 kts | 165° |
| 2026-05-04 23:48 | 31.11077 | -83.24661 | 37018 ft | 493 kts | 165° |
| 2026-05-04 23:49 | 31.04741 | -83.21645 | 37027 ft | 493 kts | 165° |
| 2026-05-04 23:49 | 30.98361 | -83.18615 | 37024 ft | 493 kts | 165° |
| 2026-05-04 23:50 | 30.92016 | -83.15598 | 37028 ft | 494 kts | 165° |
| 2026-05-04 23:50 | 30.85619 | -83.12568 | 37018 ft | 495 kts | 165° |
| 2026-05-04 23:51 | 30.79290 | -83.09389 | 37010 ft | 503 kts | 154° |
| 2026-05-04 23:51 | 30.76551 | -83.06814 | 37057 ft | 510 kts | 141° |
| 2026-05-04 23:51 | 30.73922 | -83.04047 | 37037 ft | 510 kts | 142° |
| 2026-05-04 23:52 | 30.68654 | -82.98600 | 37036 ft | 510 kts | 142° |
| 2026-05-04 23:52 | 30.63347 | -82.93138 | 37023 ft | 510 kts | 143° |
| 2026-05-04 23:53 | 30.58038 | -82.87678 | 37020 ft | 509 kts | 143° |
| 2026-05-04 23:53 | 30.52751 | -82.82266 | 37013 ft | 508 kts | 142° |
| 2026-05-04 23:54 | 30.47473 | -82.76857 | 37012 ft | 507 kts | 143° |
| 2026-05-04 23:54 | 30.42175 | -82.71431 | 37017 ft | 506 kts | 143° |
| 2026-05-04 23:55 | 30.36927 | -82.66074 | 37019 ft | 506 kts | 143° |
| 2026-05-04 23:56 | 30.29004 | -82.57998 | 37013 ft | 504 kts | 143° |
| 2026-05-04 23:56 | 30.23764 | -82.52667 | 37014 ft | 503 kts | 143° |
| 2026-05-04 23:57 | 30.18495 | -82.47308 | 37024 ft | 503 kts | 143° |
| 2026-05-04 23:57 | 30.13252 | -82.42033 | 37016 ft | 499 kts | 147° |
| 2026-05-04 23:57 | 30.10300 | -82.40110 | 36788 ft | 482 kts | 167° |
| 2026-05-04 23:58 | 30.07082 | -82.39171 | 36481 ft | 471 kts | 175° |
| 2026-05-04 23:58 | 30.03914 | -82.38323 | 36020 ft | 474 kts | 175° |
| 2026-05-04 23:58 | 30.00656 | -82.37434 | 35467 ft | 482 kts | 174° |
| 2026-05-04 23:58 | 29.97375 | -82.36529 | 34837 ft | 491 kts | 174° |
| 2026-05-04 23:59 | 29.94024 | -82.35608 | 34198 ft | 498 kts | 174° |
| 2026-05-04 23:59 | 29.90659 | -82.34675 | 33540 ft | 502 kts | 174° |
| 2026-05-04 23:59 | 29.87245 | -82.33730 | 32890 ft | 499 kts | 174° |
| 2026-05-04 23:59 | 29.83878 | -82.32798 | 32219 ft | 491 kts | 174° |
| 2026-05-05 00:00 | 29.80607 | -82.31898 | 31560 ft | 487 kts | 174° |
| 2026-05-05 00:00 | 29.78394 | -82.31289 | 31107 ft | 486 kts | 174° |
| 2026-05-05 00:00 | 29.74008 | -82.30189 | 30207 ft | 483 kts | 175° |
| 2026-05-05 00:00 | 29.70729 | -82.29379 | 29556 ft | 484 kts | 175° |
| 2026-05-05 00:01 | 29.67412 | -82.28561 | 28878 ft | 485 kts | 175° |
| 2026-05-05 00:01 | 29.64139 | -82.27759 | 28205 ft | 484 kts | 175° |
| 2026-05-05 00:01 | 29.60862 | -82.26951 | 27534 ft | 482 kts | 174° |
| 2026-05-05 00:01 | 29.57618 | -82.26153 | 26890 ft | 479 kts | 174° |
| 2026-05-05 00:02 | 29.54352 | -82.25345 | 26239 ft | 476 kts | 174° |
| 2026-05-05 00:02 | 29.51118 | -82.24549 | 25594 ft | 472 kts | 174° |
| 2026-05-05 00:02 | 29.47931 | -82.23764 | 24971 ft | 467 kts | 174° |
| 2026-05-05 00:02 | 29.44769 | -82.22994 | 24355 ft | 462 kts | 174° |
| 2026-05-05 00:03 | 29.41675 | -82.22237 | 23739 ft | 457 kts | 174° |
| 2026-05-05 00:03 | 29.38590 | -82.21480 | 23118 ft | 453 kts | 174° |
| 2026-05-05 00:03 | 29.35488 | -82.20720 | 22497 ft | 448 kts | 173° |
| 2026-05-05 00:03 | 29.32498 | -82.19990 | 21899 ft | 444 kts | 173° |
| 2026-05-05 00:04 | 29.29502 | -82.19244 | 21299 ft | 439 kts | 172° |
| 2026-05-05 00:04 | 29.26626 | -82.17982 | 20719 ft | 440 kts | 161° |
| 2026-05-05 00:04 | 29.23836 | -82.16660 | 20170 ft | 433 kts | 162° |
| 2026-05-05 00:04 | 29.21077 | -82.15331 | 19637 ft | 427 kts | 162° |
| 2026-05-05 00:05 | 29.18324 | -82.14021 | 19110 ft | 421 kts | 161° |
| 2026-05-05 00:05 | 29.15650 | -82.12746 | 18593 ft | 415 kts | 161° |
| 2026-05-05 00:05 | 29.13009 | -82.11490 | 18097 ft | 409 kts | 161° |
| 2026-05-05 00:05 | 29.10400 | -82.10253 | 17602 ft | 403 kts | 161° |
| 2026-05-05 00:06 | 29.07854 | -82.09045 | 17116 ft | 397 kts | 161° |
| 2026-05-05 00:06 | 29.05294 | -82.07831 | 16622 ft | 389 kts | 161° |
| 2026-05-05 00:06 | 29.02833 | -82.06662 | 16158 ft | 380 kts | 161° |
| 2026-05-05 00:06 | 29.00447 | -82.05531 | 15704 ft | 372 kts | 161° |
| 2026-05-05 00:07 | 28.98162 | -82.04124 | 15216 ft | 370 kts | 142° |
| 2026-05-05 00:07 | 28.96388 | -82.02026 | 14790 ft | 365 kts | 135° |
| 2026-05-05 00:07 | 28.94656 | -81.99987 | 14364 ft | 358 kts | 135° |
| 2026-05-05 00:07 | 28.92955 | -81.97977 | 13943 ft | 350 kts | 135° |
| 2026-05-05 00:08 | 28.91274 | -81.95997 | 13494 ft | 342 kts | 135° |
| 2026-05-05 00:08 | 28.89634 | -81.94068 | 13046 ft | 335 kts | 135° |
| 2026-05-05 00:08 | 28.88032 | -81.92187 | 12620 ft | 328 kts | 136° |
| 2026-05-05 00:08 | 28.86347 | -81.90456 | 12198 ft | 322 kts | 141° |
| 2026-05-05 00:09 | 28.84693 | -81.88789 | 11802 ft | 317 kts | 140° |
| 2026-05-05 00:09 | 28.83046 | -81.87135 | 11412 ft | 312 kts | 141° |
| 2026-05-05 00:09 | 28.81429 | -81.85509 | 11021 ft | 308 kts | 141° |
| 2026-05-05 00:09 | 28.79837 | -81.83898 | 10635 ft | 305 kts | 140° |
| 2026-05-05 00:10 | 28.78144 | -81.82481 | 10248 ft | 299 kts | 151° |
| 2026-05-05 00:10 | 28.76400 | -81.81226 | 9882 ft | 296 kts | 150° |
| 2026-05-05 00:10 | 28.74683 | -81.79977 | 9523 ft | 293 kts | 150° |
| 2026-05-05 00:10 | 28.72964 | -81.78737 | 9161 ft | 290 kts | 150° |
| 2026-05-05 00:11 | 28.71265 | -81.77525 | 8802 ft | 287 kts | 150° |
| 2026-05-05 00:11 | 28.69574 | -81.76331 | 8474 ft | 284 kts | 150° |
| 2026-05-05 00:11 | 28.67901 | -81.75160 | 8146 ft | 281 kts | 150° |
| 2026-05-05 00:11 | 28.66247 | -81.74003 | 7813 ft | 276 kts | 150° |
| 2026-05-05 00:12 | 28.64623 | -81.72872 | 7473 ft | 269 kts | 150° |
| 2026-05-05 00:12 | 28.63062 | -81.71795 | 7145 ft | 260 kts | 150° |
| 2026-05-05 00:12 | 28.61536 | -81.70753 | 6830 ft | 252 kts | 150° |
| 2026-05-05 00:12 | 28.60049 | -81.69745 | 6503 ft | 245 kts | 150° |
| 2026-05-05 00:13 | 28.58585 | -81.68760 | 6203 ft | 239 kts | 150° |
| 2026-05-05 00:13 | 28.57175 | -81.67828 | 5913 ft | 234 kts | 150° |
| 2026-05-05 00:13 | 28.55765 | -81.66921 | 5615 ft | 233 kts | 150° |
| 2026-05-05 00:13 | 28.54342 | -81.66036 | 5324 ft | 233 kts | 150° |
| 2026-05-05 00:14 | 28.52901 | -81.65156 | 5034 ft | 233 kts | 150° |
| 2026-05-05 00:14 | 28.51467 | -81.64294 | 4742 ft | 232 kts | 150° |
| 2026-05-05 00:14 | 28.50031 | -81.63448 | 4447 ft | 231 kts | 150° |
| 2026-05-05 00:14 | 28.48635 | -81.62592 | 4147 ft | 227 kts | 140° |
| 2026-05-05 00:15 | 28.47810 | -81.61179 | 3879 ft | 213 kts | 99° |
| 2026-05-05 00:15 | 28.47660 | -81.59530 | 3630 ft | 207 kts | 93° |
| 2026-05-05 00:15 | 28.47558 | -81.57925 | 3383 ft | 203 kts | 93° |
| 2026-05-05 00:15 | 28.47482 | -81.56325 | 3134 ft | 201 kts | 93° |
| 2026-05-05 00:16 | 28.47441 | -81.54765 | 3006 ft | 194 kts | 92° |
| 2026-05-05 00:16 | 28.47427 | -81.53251 | 2987 ft | 190 kts | 86° |
| 2026-05-05 00:16 | 28.47650 | -81.51771 | 2986 ft | 186 kts | 79° |
| 2026-05-05 00:16 | 28.47950 | -81.50376 | 3002 ft | 180 kts | 73° |
| 2026-05-05 00:17 | 28.48438 | -81.49096 | 2861 ft | 176 kts | 66° |
| 2026-05-05 00:17 | 28.48952 | -81.47845 | 2660 ft | 171 kts | 68° |
| 2026-05-05 00:17 | 28.49425 | -81.46637 | 2464 ft | 165 kts | 69° |
| 2026-05-05 00:17 | 28.49877 | -81.45449 | 2245 ft | 161 kts | 70° |
| 2026-05-05 00:18 | 28.50321 | -81.44299 | 2035 ft | 158 kts | 69° |
| 2026-05-05 00:18 | 28.50750 | -81.43187 | 1817 ft | 144 kts | 71° |
| 2026-05-05 00:18 | 28.51121 | -81.42228 | 1622 ft | 125 kts | 71° |
| 2026-05-05 00:18 | 28.51450 | -81.41361 | 1451 ft | 114 kts | 71° |
| 2026-05-05 00:19 | 28.51753 | -81.40558 | 1313 ft | 109 kts | 71° |
| 2026-05-05 00:19 | 28.52051 | -81.39776 | 1178 ft | 106 kts | 71° |
| 2026-05-05 00:19 | 28.52340 | -81.39024 | 1047 ft | 103 kts | 70° |
| 2026-05-05 00:19 | 28.52618 | -81.38277 | 905 ft | 102 kts | 71° |
| 2026-05-05 00:20 | 28.52913 | -81.37538 | 775 ft | 102 kts | 71° |
| 2026-05-05 00:20 | 28.53189 | -81.36813 | 655 ft | 101 kts | 70° |
| 2026-05-05 00:20 | 28.53463 | -81.36079 | 532 ft | 101 kts | 70° |
| 2026-05-05 00:20 | 28.53749 | -81.35338 | 396 ft | 101 kts | 69° |
| 2026-05-05 00:21 | 28.54026 | -81.34609 | 259 ft | 102 kts | 70° |
| 2026-05-05 00:21 | 28.54303 | -81.33877 | 117 ft | 98 kts | 70° |
| 2026-05-05 00:21 | 28.54520 | -81.33305 | 106 ft | 42 kts | 68° |
| 2026-05-05 00:21 | 28.54597 | -81.33154 | 108 ft | 15 kts | 28° |
| 2026-05-05 00:22 | 28.54672 | -81.33153 | 109 ft | 2 kts | 351° |
| 2026-05-05 00:22 | 28.54677 | -81.33154 | 109 ft | 0 kts | 351° |
| 2026-05-05 00:22 | 28.54679 | -81.33154 | 109 ft | 1 kts | 351° |
| 2026-05-05 00:22 | 28.54716 | -81.33186 | 109 ft | 10 kts | 283° |
| 2026-05-05 00:23 | 28.54714 | -81.33277 | 108 ft | 12 kts | 266° |
| 2026-05-05 00:23 | 28.54705 | -81.33383 | 107 ft | 14 kts | 264° |
| 2026-05-05 00:23 | 28.54693 | -81.33504 | 106 ft | 15 kts | 264° |
| 2026-05-05 00:23 | 28.54702 | -81.33626 | 106 ft | 14 kts | 301° |
| 2026-05-05 00:24 | 28.54750 | -81.33710 | 106 ft | 10 kts | 284° |
| 2026-05-05 00:24 | 28.54763 | -81.33752 | 106 ft | 0 kts | 303° |
| 2026-05-05 00:24 | 28.54770 | -81.33762 | 106 ft | 2 kts | 312° |
| 2026-05-05 00:24 | 28.54773 | -81.33765 | 106 ft | 0 kts | 312° |